Time;durP1;ratioP1;P1;durP2;ratioP2;P2;SDS_P1;SDS_P2;PMS_P1;PMS_P2;Temp;Humidity;BMP_temperature;BMP_pressure;BME280_temperature;BME280_humidity;BME280_pressure;Samples;Min_cycle;Max_cycle;Signal;HPM_P1;HPM_P2
2023/02/28 00:02:19;;;;;;;3.30;1.70;;;;;;;;;;105696;1250;60423;-47
2023/02/28 00:04:52;;;;;;;4.80;1.90;;;;;;;;;;105424;1253;60453;-48
2023/02/28 00:07:25;;;;;;;2.90;1.40;;;;;;;;;;105502;1251;61882;-47
2023/02/28 00:09:55;;;;;;;1.80;1.40;;;;;;;;;;105421;1254;60444;-46
2023/02/28 00:12:24;;;;;;;3.80;2.30;;;;;;;;;;105795;1252;60786;-47
2023/02/28 00:14:52;;;;;;;2.30;1.20;;;;;;;;;;105566;1250;60528;-44
2023/02/28 00:17:23;;;;;;;1.70;1.30;;;;;;;;;;105459;1255;60505;-47
2023/02/28 00:20:01;;;;;;;3.40;1.60;;;;;;;;;;105361;1253;62097;-44
2023/02/28 00:22:29;;;;;;;2.30;1.20;;;;;;;;;;105454;1252;60326;-46
2023/02/28 00:24:57;;;;;;;1.90;1.10;;;;;;;;;;105337;1252;60528;-47
2023/02/28 00:27:25;;;;;;;3.40;1.50;;;;;;;;;;105443;1255;60373;-46
2023/02/28 00:29:54;;;;;;;1.90;1.00;;;;;;;;;;105445;1252;60402;-46
2023/02/28 00:32:21;;;;;;;6.40;1.90;;;;;;;;;;106100;1251;62352;-45
2023/02/28 00:34:50;;;;;;;3.40;1.20;;;;;;;;;;105610;1255;60345;-45
2023/02/28 00:37:17;;;;;;;2.90;1.50;;;;;;;;;;105439;1256;60758;-45
2023/02/28 00:39:45;;;;;;;2.70;1.40;;;;;;;;;;105291;1252;60410;-47
2023/02/28 00:42:16;;;;;;;1.90;1.10;;;;;;;;;;105565;1256;60727;-46
2023/02/28 00:44:44;;;;;;;3.50;1.10;;;;;;;;;;106749;1251;62139;-45
2023/02/28 00:47:12;;;;;;;1.80;0.90;;;;;;;;;;105468;1254;60426;-46
2023/02/28 00:49:40;;;;;;;2.50;1.00;;;;;;;;;;105350;1251;60704;-45
2023/02/28 00:52:09;;;;;;;1.50;1.00;;;;;;;;;;105458;1251;60460;-44
2023/02/28 00:54:38;;;;;;;3.60;1.60;;;;;;;;;;105703;1252;60511;-44
2023/02/28 00:57:07;;;;;;;3.40;1.50;;;;;;;;;;106651;1250;62363;-45
2023/02/28 00:59:35;;;;;;;2.00;1.10;;;;;;;;;;105603;1254;60323;-45
2023/02/28 01:02:03;;;;;;;3.00;1.30;;;;;;;;;;105796;1254;61466;-46
2023/02/28 01:04:32;;;;;;;2.20;1.20;;;;;;;;;;105558;1256;60943;-45
2023/02/28 01:07:01;;;;;;;2.90;1.60;;;;;;;;;;105512;1256;60558;-45
2023/02/28 01:09:29;;;;;;;6.20;1.80;;;;;;;;;;105392;1251;62338;-45
2023/02/28 01:12:03;;;;;;;4.60;1.90;;;;;;;;;;105508;1252;60425;-46
2023/02/28 01:14:33;;;;;;;3.00;1.50;;;;;;;;;;105677;1255;60651;-45
2023/02/28 01:17:01;;;;;;;2.00;1.00;;;;;;;;;;105350;1256;60807;-43
2023/02/28 01:19:28;;;;;;;3.10;1.00;;;;;;;;;;105247;1251;60565;-46
2023/02/28 01:21:56;;;;;;;1.40;0.90;;;;;;;;;;105528;1251;62134;-44
2023/02/28 01:24:24;;;;;;;1.60;0.80;;;;;;;;;;105475;1256;60429;-46
2023/02/28 01:26:52;;;;;;;1.10;0.80;;;;;;;;;;105510;1254;60605;-47
2023/02/28 01:29:21;;;;;;;2.30;0.80;;;;;;;;;;105607;1254;60525;-46
2023/02/28 01:31:49;;;;;;;1.60;0.80;;;;;;;;;;105378;1251;60381;-45
2023/02/28 01:34:19;;;;;;;1.80;0.70;;;;;;;;;;106064;1251;62138;-45
2023/02/28 01:36:48;;;;;;;2.00;0.80;;;;;;;;;;105090;1257;60407;-46
2023/02/28 01:39:16;;;;;;;1.30;0.80;;;;;;;;;;105316;1256;60750;-45
2023/02/28 01:41:45;;;;;;;1.20;0.90;;;;;;;;;;105433;1251;60534;-46
2023/02/28 01:44:33;;;;;;;2.00;0.90;;;;;;;;;;105449;1253;61004;-45
2023/02/28 01:49:40;;;;;;;2.00;0.80;;;;;;;;;;102763;1286;601977;-45
2023/02/28 01:52:08;;;;;;;2.70;0.80;;;;;;;;;;104667;1273;59049;-44
2023/02/28 01:54:36;;;;;;;1.80;0.80;;;;;;;;;;104695;1264;59078;-45
2023/02/28 01:57:13;;;;;;;0.90;0.70;;;;;;;;;;105155;1264;61608;-44
2023/02/28 01:59:52;;;;;;;1.30;0.60;;;;;;;;;;104442;1269;59046;-45
2023/02/28 02:02:24;;;;;;;1.30;0.60;;;;;;;;;;104446;1270;173006;-45
2023/02/28 02:05:09;;;;;;;1.40;0.70;;;;;;;;;;104908;1264;59550;-45
2023/02/28 02:07:38;;;;;;;1.70;1.00;;;;;;;;;;105001;1266;58949;-44
2023/02/28 02:10:07;;;;;;;2.40;0.70;;;;;;;;;;104938;1266;60281;-45
2023/02/28 02:12:53;;;;;;;1.20;0.70;;;;;;;;;;105412;1264;58943;-45
2023/02/28 02:15:26;;;;;;;0.80;0.50;;;;;;;;;;104879;1266;61008;-45
2023/02/28 02:17:56;;;;;;;1.90;0.70;;;;;;;;;;104846;1265;59531;-45
2023/02/28 02:20:24;;;;;;;2.80;0.80;;;;;;;;;;105234;1261;59666;-45
2023/02/28 02:22:59;;;;;;;0.90;0.70;;;;;;;;;;105350;1260;61616;-45
2023/02/28 02:25:39;;;;;;;1.20;0.60;;;;;;;;;;105156;1263;59564;-47
2023/02/28 02:28:18;;;;;;;1.50;0.70;;;;;;;;;;105170;1264;60787;-46
2023/02/28 02:30:53;;;;;;;1.20;0.60;;;;;;;;;;105197;1262;59685;-45
2023/02/28 02:33:31;;;;;;;2.40;0.70;;;;;;;;;;105168;1257;59643;-45
2023/02/28 02:36:03;;;;;;;0.80;0.60;;;;;;;;;;104851;1257;61366;-44
2023/02/28 02:38:57;;;;;;;1.40;0.80;;;;;;;;;;105086;1264;59510;-44
2023/02/28 02:41:36;;;;;;;1.10;0.60;;;;;;;;;;104674;1261;59583;-45
2023/02/28 02:44:14;;;;;;;2.60;0.70;;;;;;;;;;105048;1263;59669;-47
2023/02/28 02:46:42;;;;;;;0.80;0.60;;;;;;;;;;105521;1261;59755;-47
2023/02/28 02:49:19;;;;;;;0.90;0.60;;;;;;;;;;105386;1261;61297;-47
2023/02/28 02:51:47;;;;;;;1.50;0.60;;;;;;;;;;105002;1263;59541;-47
2023/02/28 02:54:17;;;;;;;1.40;0.70;;;;;;;;;;104733;1261;60693;-46
2023/02/28 02:56:46;;;;;;;1.90;0.70;;;;;;;;;;104568;1266;59723;-47
2023/02/28 02:59:20;;;;;;;7.00;0.70;;;;;;;;;;105398;1260;59627;-47
2023/02/28 03:01:49;;;;;;;1.80;0.80;;;;;;;;;;105003;1264;61603;-46
2023/02/28 03:04:17;;;;;;;1.10;0.70;;;;;;;;;;104931;1266;59653;-47
2023/02/28 03:06:47;;;;;;;1.00;0.80;;;;;;;;;;104946;1264;60387;-47
2023/02/28 03:09:15;;;;;;;2.00;0.90;;;;;;;;;;104987;1264;59745;-48
2023/02/28 03:11:45;;;;;;;1.20;0.80;;;;;;;;;;104904;1261;59886;-46
2023/02/28 03:14:32;;;;;;;1.40;0.80;;;;;;;;;;104874;1260;60088;-45
2023/02/28 03:17:19;;;;;;;1.10;0.80;;;;;;;;;;104598;1260;59714;-48
2023/02/28 03:19:53;;;;;;;1.30;0.80;;;;;;;;;;105101;1257;60836;-46
2023/02/28 03:22:27;;;;;;;0.90;0.70;;;;;;;;;;105305;1257;60867;-46
2023/02/28 03:25:03;;;;;;;0.90;0.70;;;;;;;;;;105197;1257;59638;-46
2023/02/28 03:27:34;;;;;;;0.90;0.70;;;;;;;;;;105107;1256;61079;-45
2023/02/28 03:30:23;;;;;;;1.10;0.70;;;;;;;;;;105194;1259;59862;-47
2023/02/28 03:32:53;;;;;;;0.90;0.70;;;;;;;;;;105180;1260;60846;-45
2023/02/28 03:35:25;;;;;;;0.70;0.60;;;;;;;;;;105304;1261;59813;-45
2023/02/28 03:37:55;;;;;;;1.00;0.60;;;;;;;;;;105478;1257;59624;-46
2023/02/28 03:40:25;;;;;;;0.80;0.50;;;;;;;;;;105143;1257;61211;-47
2023/02/28 03:42:54;;;;;;;0.80;0.60;;;;;;;;;;105301;1257;60855;-47
2023/02/28 03:45:24;;;;;;;0.80;0.60;;;;;;;;;;105983;1257;60789;-46
2023/02/28 03:47:53;;;;;;;0.60;0.40;;;;;;;;;;105399;1260;59666;-46
2023/02/28 03:50:24;;;;;;;1.30;0.60;;;;;;;;;;105247;1259;59841;-46
2023/02/28 03:53:04;;;;;;;1.60;0.60;;;;;;;;;;105316;1257;61322;-48
2023/02/28 03:55:45;;;;;;;0.90;0.70;;;;;;;;;;105217;1259;59557;-46
2023/02/28 03:58:18;;;;;;;2.80;0.60;;;;;;;;;;105250;1257;60825;-44
2023/02/28 04:00:47;;;;;;;2.00;0.60;;;;;;;;;;105241;1254;59618;-47
2023/02/28 04:03:16;;;;;;;1.60;0.50;;;;;;;;;;105803;1259;59563;-45
2023/02/28 04:05:49;;;;;;;1.30;0.90;;;;;;;;;;105443;1257;61044;-46
2023/02/28 04:08:18;;;;;;;1.10;0.60;;;;;;;;;;106511;1256;59542;-47
2023/02/28 04:10:50;;;;;;;1.00;0.60;;;;;;;;;;105128;1256;60814;-47
2023/02/28 04:13:18;;;;;;;1.40;0.70;;;;;;;;;;105286;1259;59507;-46
2023/02/28 04:15:46;;;;;;;2.00;0.70;;;;;;;;;;105385;1257;59699;-47
2023/02/28 04:18:19;;;;;;;0.80;0.60;;;;;;;;;;105101;1257;61368;-43
2023/02/28 04:20:46;;;;;;;0.90;0.70;;;;;;;;;;105174;1259;59718;-45
2023/02/28 04:23:14;;;;;;;1.10;0.70;;;;;;;;;;105316;1260;61210;-47
2023/02/28 04:25:43;;;;;;;2.20;0.70;;;;;;;;;;105468;1259;59772;-45
2023/02/28 04:28:11;;;;;;;1.70;0.70;;;;;;;;;;105735;1251;59631;-47
2023/02/28 04:30:39;;;;;;;1.20;0.70;;;;;;;;;;105535;1251;60320;-46
2023/02/28 04:33:07;;;;;;;1.50;0.70;;;;;;;;;;105513;1254;59688;-47
2023/02/28 04:35:36;;;;;;;3.10;0.70;;;;;;;;;;105647;1252;60777;-48
2023/02/28 04:38:05;;;;;;;3.50;0.60;;;;;;;;;;105722;1250;59711;-47
2023/02/28 04:40:34;;;;;;;2.00;0.70;;;;;;;;;;105952;1251;60213;-47
2023/02/28 04:43:03;;;;;;;0.90;0.60;;;;;;;;;;105591;1254;61381;-47
2023/02/28 04:45:34;;;;;;;1.10;0.60;;;;;;;;;;105522;1256;59605;-44
2023/02/28 04:48:02;;;;;;;1.20;0.70;;;;;;;;;;105794;1251;60562;-48
2023/02/28 04:50:30;;;;;;;1.20;0.70;;;;;;;;;;105468;1254;59855;-47
2023/02/28 04:53:01;;;;;;;1.00;0.70;;;;;;;;;;105652;1252;59670;-46
2023/02/28 04:55:29;;;;;;;1.50;0.70;;;;;;;;;;105753;1251;61322;-47
2023/02/28 04:57:57;;;;;;;1.70;0.70;;;;;;;;;;105553;1256;59644;-47
2023/02/28 05:00:25;;;;;;;2.70;0.70;;;;;;;;;;106325;1253;60173;-47
2023/02/28 05:02:53;;;;;;;1.30;0.60;;;;;;;;;;105557;1251;59723;-45
2023/02/28 05:05:21;;;;;;;0.90;0.60;;;;;;;;;;105455;1253;59635;-47
2023/02/28 05:07:49;;;;;;;2.70;0.60;;;;;;;;;;105456;1254;61616;-45
2023/02/28 05:10:17;;;;;;;1.20;0.70;;;;;;;;;;105511;1250;59695;-45
2023/02/28 05:12:45;;;;;;;1.50;0.70;;;;;;;;;;105683;1253;60710;-46
2023/02/28 05:15:13;;;;;;;1.50;0.80;;;;;;;;;;105520;1251;59627;-44
2023/02/28 05:17:41;;;;;;;1.80;1.10;;;;;;;;;;105424;1251;59725;-45
2023/02/28 05:20:16;;;;;;;2.20;0.80;;;;;;;;;;105631;1251;63096;-46
2023/02/28 05:22:44;;;;;;;;;;;;;;;;;;105660;1251;59672;-47
2023/02/28 05:25:14;;;;;;;0.90;0.60;;;;;;;;;;105604;1254;60463;-46
2023/02/28 05:27:42;;;;;;;1.20;0.70;;;;;;;;;;105481;1251;59700;-45
2023/02/28 05:30:12;;;;;;;1.90;0.70;;;;;;;;;;105340;1254;59586;-44
2023/02/28 05:32:42;;;;;;;1.40;0.70;;;;;;;;;;105393;1251;61075;-47
2023/02/28 05:35:10;;;;;;;2.60;0.80;;;;;;;;;;105785;1251;59701;-45
2023/02/28 05:37:39;;;;;;;1.80;0.80;;;;;;;;;;105260;1256;60568;-45
2023/02/28 05:40:10;;;;;;;2.00;0.70;;;;;;;;;;105746;1251;59649;-44
2023/02/28 05:42:39;;;;;;;4.00;0.80;;;;;;;;;;105553;1251;59608;-45
2023/02/28 05:45:07;;;;;;;3.00;1.00;;;;;;;;;;105424;1251;61356;-48
2023/02/28 05:47:36;;;;;;;2.30;0.80;;;;;;;;;;105374;1254;59752;-45
2023/02/28 05:50:04;;;;;;;1.80;0.90;;;;;;;;;;105375;1251;62071;-45
2023/02/28 05:52:32;;;;;;;2.60;0.70;;;;;;;;;;105612;1251;59657;-47
2023/02/28 05:55:00;;;;;;;2.00;0.80;;;;;;;;;;105315;1251;59634;-47
2023/02/28 05:57:28;;;;;;;1.50;0.80;;;;;;;;;;105595;1254;61035;-46
2023/02/28 05:59:56;;;;;;;2.70;1.10;;;;;;;;;;105423;1253;59666;-47
2023/02/28 06:02:23;;;;;;;2.20;0.90;;;;;;;;;;105557;1254;60643;-47
2023/02/28 06:04:52;;;;;;;1.40;1.00;;;;;;;;;;105628;1255;60319;-45
2023/02/28 06:07:22;;;;;;;2.10;1.00;;;;;;;;;;105627;1253;60492;-45
2023/02/28 06:09:52;;;;;;;2.80;1.10;;;;;;;;;;105804;1256;62357;-47
2023/02/28 06:12:20;;;;;;;1.70;1.20;;;;;;;;;;105690;1255;60409;-45
2023/02/28 06:14:49;;;;;;;1.90;0.90;;;;;;;;;;105806;1253;60511;-46
2023/02/28 06:17:17;;;;;;;2.40;0.90;;;;;;;;;;105519;1254;60540;-48
2023/02/28 06:19:45;;;;;;;1.50;0.90;;;;;;;;;;106064;1251;60535;-48
2023/02/28 06:22:13;;;;;;;2.50;1.30;;;;;;;;;;105791;1251;62427;-47
2023/02/28 06:24:41;;;;;;;5.40;1.00;;;;;;;;;;105368;1253;60460;-45
2023/02/28 06:27:09;;;;;;;4.10;1.80;;;;;;;;;;105735;1254;60794;-48
2023/02/28 06:29:39;;;;;;;2.10;1.20;;;;;;;;;;105675;1253;60536;-46
2023/02/28 06:32:07;;;;;;;1.80;1.00;;;;;;;;;;106566;1255;60511;-45
2023/02/28 06:34:36;;;;;;;3.10;1.10;;;;;;;;;;106327;1251;61957;-46
2023/02/28 06:37:04;;;;;;;2.20;1.10;;;;;;;;;;105530;1251;60722;-47
2023/02/28 06:39:35;;;;;;;2.90;1.00;;;;;;;;;;105405;1251;60915;-48
2023/02/28 06:42:03;;;;;;;2.50;1.20;;;;;;;;;;105720;1256;60322;-47
2023/02/28 06:44:37;;;;;;;3.30;0.90;;;;;;;;;;105486;1251;60503;-45
2023/02/28 06:47:05;;;;;;;2.50;1.10;;;;;;;;;;105786;1251;61164;-47
2023/02/28 06:49:37;;;;;;;1.90;0.90;;;;;;;;;;105692;1251;60437;-44
2023/02/28 06:52:05;;;;;;;1.40;0.80;;;;;;;;;;105922;1254;60766;-47
2023/02/28 06:54:32;;;;;;;5.30;1.40;;;;;;;;;;105504;1256;60405;-46
2023/02/28 06:57:00;;;;;;;2.30;1.10;;;;;;;;;;105466;1256;60393;-45
2023/02/28 06:59:28;;;;;;;1.70;0.90;;;;;;;;;;105372;1251;62246;-47
2023/02/28 07:01:56;;;;;;;5.60;1.40;;;;;;;;;;105444;1254;60535;-47
2023/02/28 07:04:25;;;;;;;6.80;2.10;;;;;;;;;;105654;1254;61915;-48
2023/02/28 07:06:56;;;;;;;3.60;1.50;;;;;;;;;;105700;1251;60543;-47
2023/02/28 07:09:29;;;;;;;4.30;1.00;;;;;;;;;;105431;1251;60867;-46
2023/02/28 07:11:57;;;;;;;2.20;1.30;;;;;;;;;;105664;1250;62193;-46
2023/02/28 07:14:25;;;;;;;3.90;1.50;;;;;;;;;;105292;1256;60435;-47
2023/02/28 07:16:53;;;;;;;1.70;1.00;;;;;;;;;;105699;1251;60665;-47
2023/02/28 07:19:21;;;;;;;2.90;1.40;;;;;;;;;;105346;1255;60495;-47
2023/02/28 07:21:49;;;;;;;1.80;1.10;;;;;;;;;;105862;1251;60405;-44
2023/02/28 07:24:17;;;;;;;2.20;1.10;;;;;;;;;;105653;1251;62075;-47
2023/02/28 07:26:46;;;;;;;3.70;1.40;;;;;;;;;;105464;1251;60455;-47
2023/02/28 07:29:14;;;;;;;6.60;3.00;;;;;;;;;;105671;1251;60982;-48
2023/02/28 07:31:42;;;;;;;4.60;1.40;;;;;;;;;;105200;1256;60425;-46
2023/02/28 07:34:11;;;;;;;1.80;0.90;;;;;;;;;;105457;1251;60438;-48
2023/02/28 07:36:39;;;;;;;1.90;1.00;;;;;;;;;;105744;1250;62230;-48
2023/02/28 07:39:09;;;;;;;3.70;1.60;;;;;;;;;;105355;1253;60289;-48
2023/02/28 07:41:42;;;;;;;3.40;1.30;;;;;;;;;;105572;1256;60751;-46
2023/02/28 07:44:11;;;;;;;5.30;1.30;;;;;;;;;;105328;1251;60422;-46
2023/02/28 07:46:39;;;;;;;1.70;0.90;;;;;;;;;;105372;1251;60427;-46
2023/02/28 07:49:07;;;;;;;1.30;0.80;;;;;;;;;;106142;1255;62456;-46
2023/02/28 07:51:36;;;;;;;3.10;0.80;;;;;;;;;;105343;1251;61321;-46
2023/02/28 07:54:04;;;;;;;2.70;0.90;;;;;;;;;;107281;1250;60889;-48
2023/02/28 07:56:32;;;;;;;1.80;0.80;;;;;;;;;;105536;1254;60388;-45
2023/02/28 07:59:01;;;;;;;1.90;0.90;;;;;;;;;;105295;1252;60419;-44
2023/02/28 08:01:30;;;;;;;1.60;0.90;;;;;;;;;;105500;1254;61846;-45
2023/02/28 08:04:00;;;;;;;3.10;0.90;;;;;;;;;;105448;1251;61719;-45
2023/02/28 08:06:28;;;;;;;1.80;0.90;;;;;;;;;;105436;1256;60638;-47
2023/02/28 08:08:57;;;;;;;2.90;1.00;;;;;;;;;;105266;1251;60434;-46
2023/02/28 08:11:27;;;;;;;1.70;0.90;;;;;;;;;;105733;1251;60442;-46
2023/02/28 08:13:55;;;;;;;2.30;0.90;;;;;;;;;;105428;1254;62326;-46
2023/02/28 08:16:23;;;;;;;3.50;0.90;;;;;;;;;;105355;1253;60516;-48
2023/02/28 08:18:52;;;;;;;2.40;0.90;;;;;;;;;;105580;1251;62090;-46
2023/02/28 08:21:20;;;;;;;1.40;0.90;;;;;;;;;;105584;1251;60555;-46
2023/02/28 08:23:48;;;;;;;1.30;0.90;;;;;;;;;;105654;1251;60557;-47
2023/02/28 08:26:16;;;;;;;2.20;1.20;;;;;;;;;;105330;1251;62295;-46
2023/02/28 08:28:44;;;;;;;2.20;1.20;;;;;;;;;;105244;1251;60520;-50
2023/02/28 08:31:13;;;;;;;2.20;0.90;;;;;;;;;;105665;1251;60488;-48
2023/02/28 08:33:41;;;;;;;1.30;0.80;;;;;;;;;;105757;1251;60504;-50
2023/02/28 08:36:09;;;;;;;2.50;1.10;;;;;;;;;;105737;1254;60463;-49
2023/02/28 08:38:37;;;;;;;4.00;0.90;;;;;;;;;;105434;1253;61833;-49
2023/02/28 08:41:07;;;;;;;1.60;0.90;;;;;;;;;;105582;1250;60408;-48
2023/02/28 08:43:35;;;;;;;1.70;1.10;;;;;;;;;;105794;1251;60746;-50
2023/02/28 08:46:05;;;;;;;1.60;1.00;;;;;;;;;;105478;1251;60527;-49
2023/02/28 08:48:34;;;;;;;1.70;1.10;;;;;;;;;;105380;1253;60473;-49
2023/02/28 08:51:07;;;;;;;1.60;1.20;;;;;;;;;;105544;1254;62176;-49
2023/02/28 08:53:36;;;;;;;1.90;1.00;;;;;;;;;;105480;1254;60347;-49
2023/02/28 08:56:10;;;;;;;1.70;0.90;;;;;;;;;;105415;1251;60494;-49
2023/02/28 08:58:39;;;;;;;1.20;0.80;;;;;;;;;;105064;1251;60530;-49
2023/02/28 09:01:07;;;;;;;1.60;1.00;;;;;;;;;;109239;1253;58392;-47
2023/02/28 09:03:36;;;;;;;1.90;0.90;;;;;;;;;;105310;1253;62028;-48
2023/02/28 09:06:04;;;;;;;1.40;0.90;;;;;;;;;;104964;1251;60991;-48
2023/02/28 09:08:33;;;;;;;2.40;0.90;;;;;;;;;;105907;1251;60900;-49
2023/02/28 09:11:01;;;;;;;1.80;0.90;;;;;;;;;;108141;1251;60552;-49
2023/02/28 09:13:33;;;;;;;1.70;1.10;;;;;;;;;;105197;1251;60435;-48
2023/02/28 09:16:02;;;;;;;1.90;1.00;;;;;;;;;;105131;1251;63870;-45
2023/02/28 09:18:30;;;;;;;1.70;0.90;;;;;;;;;;105372;1255;60414;-46
2023/02/28 09:20:58;;;;;;;1.80;1.20;;;;;;;;;;105151;1252;60730;-48
2023/02/28 09:23:25;;;;;;;1.10;0.80;;;;;;;;;;105140;1254;60513;-48
2023/02/28 09:25:54;;;;;;;2.00;1.00;;;;;;;;;;105072;1251;60603;-48
2023/02/28 09:28:22;;;;;;;1.70;1.00;;;;;;;;;;105293;1251;61993;-48
2023/02/28 09:30:51;;;;;;;1.90;1.10;;;;;;;;;;105333;1251;60514;-49
2023/02/28 09:33:20;;;;;;;2.30;1.00;;;;;;;;;;105720;1251;61527;-47
2023/02/28 09:35:49;;;;;;;1.70;0.80;;;;;;;;;;105387;1253;60454;-48
2023/02/28 09:38:17;;;;;;;1.90;1.00;;;;;;;;;;105705;1256;59422;-49
2023/02/28 09:40:48;;;;;;;3.40;1.20;;;;;;;;;;106328;1253;62120;-49
2023/02/28 09:43:17;;;;;;;1.60;1.10;;;;;;;;;;105447;1256;60454;-47
2023/02/28 09:45:49;;;;;;;2.20;1.10;;;;;;;;;;105909;1253;60428;-47
2023/02/28 09:48:20;;;;;;;1.40;1.00;;;;;;;;;;105503;1254;60523;-47
2023/02/28 09:50:53;;;;;;;1.20;0.90;;;;;;;;;;105107;1253;60852;-46
2023/02/28 09:53:23;;;;;;;2.00;1.10;;;;;;;;;;105299;1251;63817;-48
2023/02/28 09:55:51;;;;;;;2.20;1.00;;;;;;;;;;105745;1255;60412;-47
2023/02/28 09:58:28;;;;;;;3.40;1.80;;;;;;;;;;106078;1255;60633;-46
2023/02/28 10:01:18;;;;;;;5.10;1.60;;;;;;;;;;105458;1251;60379;-48
2023/02/28 10:03:50;;;;;;;2.30;1.00;;;;;;;;;;105512;1256;60297;-49
2023/02/28 10:06:19;;;;;;;2.00;1.00;;;;;;;;;;105614;1251;62007;-48
2023/02/28 10:08:52;;;;;;;2.70;1.00;;;;;;;;;;105503;1254;60501;-46
2023/02/28 10:11:22;;;;;;;1.40;0.90;;;;;;;;;;105084;1251;60922;-48
2023/02/28 10:14:01;;;;;;;1.50;0.90;;;;;;;;;;105368;1257;60699;-47
2023/02/28 10:16:32;;;;;;;1.60;0.80;;;;;;;;;;105555;1251;60434;-46
2023/02/28 10:19:04;;;;;;;1.60;0.80;;;;;;;;;;105179;1254;62165;-48
2023/02/28 10:21:36;;;;;;;1.60;1.10;;;;;;;;;;105175;1256;60588;-46
2023/02/28 10:24:11;;;;;;;1.80;0.90;;;;;;;;;;105458;1254;60607;-48
2023/02/28 10:26:43;;;;;;;1.10;0.80;;;;;;;;;;105553;1256;60606;-48
2023/02/28 10:29:12;;;;;;;1.10;0.80;;;;;;;;;;105353;1256;60284;-44
2023/02/28 10:31:40;;;;;;;3.20;1.40;;;;;;;;;;105354;1251;62264;-46
2023/02/28 10:34:11;;;;;;;3.20;1.00;;;;;;;;;;105270;1257;60967;-46
2023/02/28 10:36:39;;;;;;;1.70;1.00;;;;;;;;;;105214;1257;60835;-46
2023/02/28 10:39:27;;;;;;;1.20;1.00;;;;;;;;;;105590;1251;60733;-48
2023/02/28 10:41:55;;;;;;;2.10;1.20;;;;;;;;;;105760;1251;61350;-46
2023/02/28 10:44:23;;;;;;;1.30;1.10;;;;;;;;;;105676;1254;62269;-48
2023/02/28 10:46:51;;;;;;;1.80;1.00;;;;;;;;;;105561;1254;60395;-47
2023/02/28 10:49:23;;;;;;;2.80;1.00;;;;;;;;;;105297;1255;60796;-49
2023/02/28 10:51:56;;;;;;;1.60;1.10;;;;;;;;;;105199;1251;60530;-49
2023/02/28 10:54:27;;;;;;;2.60;0.90;;;;;;;;;;105628;1251;60432;-48
2023/02/28 10:57:06;;;;;;;4.20;1.30;;;;;;;;;;104833;1254;61057;-47
2023/02/28 10:59:34;;;;;;;2.10;1.20;;;;;;;;;;105140;1256;60568;-47
2023/02/28 11:02:08;;;;;;;1.30;1.00;;;;;;;;;;105990;1255;60589;-47
2023/02/28 11:04:37;;;;;;;2.40;1.30;;;;;;;;;;105836;1255;60528;-48
2023/02/28 11:07:17;;;;;;;2.60;1.20;;;;;;;;;;106667;1254;60357;-47
2023/02/28 11:09:49;;;;;;;2.80;1.40;;;;;;;;;;105791;1254;61195;-46
2023/02/28 11:12:21;;;;;;;2.70;1.20;;;;;;;;;;105038;1255;60542;-46
2023/02/28 11:14:50;;;;;;;3.20;1.00;;;;;;;;;;107234;1251;61087;-47
2023/02/28 11:17:23;;;;;;;5.30;1.20;;;;;;;;;;107444;1254;60516;-47
2023/02/28 11:19:54;;;;;;;2.50;1.20;;;;;;;;;;105033;1251;60523;-47
2023/02/28 11:22:28;;;;;;;2.60;1.40;;;;;;;;;;106144;1251;62277;-47
2023/02/28 11:24:58;;;;;;;1.40;1.00;;;;;;;;;;105020;1256;60322;-47
2023/02/28 11:27:26;;;;;;;1.60;1.10;;;;;;;;;;105654;1255;60587;-47
2023/02/28 11:29:53;;;;;;;1.80;1.20;;;;;;;;;;106177;1253;60739;-47
2023/02/28 11:32:22;;;;;;;1.40;1.10;;;;;;;;;;105152;1252;60348;-49
2023/02/28 11:35:13;;;;;;;2.80;1.40;;;;;;;;;;106444;1252;62383;-47
2023/02/28 11:37:41;;;;;;;1.80;1.40;;;;;;;;;;104969;1256;60704;-48
2023/02/28 11:40:13;;;;;;;3.40;1.70;;;;;;;;;;105110;1251;60806;-48
2023/02/28 11:42:41;;;;;;;1.60;1.10;;;;;;;;;;105005;1257;60451;-45
2023/02/28 11:45:19;;;;;;;2.00;1.40;;;;;;;;;;105218;1252;60408;-47
2023/02/28 11:48:02;;;;;;;3.80;1.80;;;;;;;;;;105142;1254;60606;-46
2023/02/28 11:50:49;;;;;;;3.30;1.70;;;;;;;;;;105815;1253;59736;-46
2023/02/28 11:53:22;;;;;;;2.10;1.40;;;;;;;;;;105059;1252;60814;-45
2023/02/28 11:55:52;;;;;;;;;;;;;;;;;;106356;1256;60527;-46
2023/02/28 11:58:32;;;;;;;3.60;1.30;;;;;;;;;;104997;1251;60513;-48
2023/02/28 12:01:09;;;;;;;1.90;1.40;;;;;;;;;;105208;1253;61910;-45
2023/02/28 12:03:43;;;;;;;2.40;1.60;;;;;;;;;;105191;1251;60450;-48
2023/02/28 12:06:11;;;;;;;2.50;1.30;;;;;;;;;;105273;1256;60911;-48
2023/02/28 12:08:40;;;;;;;4.70;1.70;;;;;;;;;;105201;1254;60543;-49
2023/02/28 12:11:34;;;;;;;3.40;1.50;;;;;;;;;;105162;1253;60439;-48
2023/02/28 12:14:21;;;;;;;2.50;1.40;;;;;;;;;;105684;1252;62258;-46
2023/02/28 12:17:16;;;;;;;2.70;1.50;;;;;;;;;;104895;1254;60476;-47
2023/02/28 12:19:44;;;;;;;2.00;1.30;;;;;;;;;;105062;1254;60776;-46
2023/02/28 12:22:21;;;;;;;3.90;1.70;;;;;;;;;;105946;1253;60870;-46
2023/02/28 12:24:54;;;;;;;2.40;1.50;;;;;;;;;;105122;1255;60424;-48
2023/02/28 12:27:22;;;;;;;2.10;1.10;;;;;;;;;;105155;1257;61349;-48
2023/02/28 12:29:57;;;;;;;2.80;1.60;;;;;;;;;;105267;1255;60442;-46
2023/02/28 12:32:40;;;;;;;2.00;1.30;;;;;;;;;;106079;1252;60795;-46
2023/02/28 12:35:08;;;;;;;2.00;1.50;;;;;;;;;;105376;1254;60511;-46
2023/02/28 12:37:40;;;;;;;2.60;1.40;;;;;;;;;;105147;1252;60447;-48
2023/02/28 12:40:12;;;;;;;2.60;1.60;;;;;;;;;;105372;1251;62044;-48
2023/02/28 12:42:49;;;;;;;2.70;1.50;;;;;;;;;;105180;1255;61100;-48
2023/02/28 12:45:18;;;;;;;3.10;1.30;;;;;;;;;;105135;1257;60917;-45
2023/02/28 12:47:48;;;;;;;3.10;1.40;;;;;;;;;;105814;1254;60418;-48
2023/02/28 12:50:16;;;;;;;2.00;1.60;;;;;;;;;;106074;1255;60405;-47
2023/02/28 12:53:04;;;;;;;2.00;1.00;;;;;;;;;;104908;1254;62094;-46
2023/02/28 12:55:46;;;;;;;3.00;1.40;;;;;;;;;;104691;1254;60434;-46
2023/02/28 12:58:25;;;;;;;2.60;1.60;;;;;;;;;;104942;1254;62314;-46
2023/02/28 13:01:04;;;;;;;3.30;1.80;;;;;;;;;;105076;1255;60454;-48
2023/02/28 13:03:38;;;;;;;1.80;1.10;;;;;;;;;;109262;1251;59101;-49
2023/02/28 13:06:23;;;;;;;1.90;1.20;;;;;;;;;;105732;1252;62402;-47
2023/02/28 13:08:59;;;;;;;1.40;1.10;;;;;;;;;;105020;1254;60431;-49
2023/02/28 13:11:29;;;;;;;1.70;1.20;;;;;;;;;;106167;1255;60617;-49
2023/02/28 13:13:57;;;;;;;2.40;1.10;;;;;;;;;;105176;1254;59411;-48
2023/02/28 13:16:25;;;;;;;1.70;1.30;;;;;;;;;;106208;1256;60291;-48
2023/02/28 13:19:07;;;;;;;4.00;1.20;;;;;;;;;;104896;1255;62158;-48
2023/02/28 13:21:41;;;;;;;2.60;1.20;;;;;;;;;;105021;1255;60403;-46
2023/02/28 13:24:11;;;;;;;3.50;1.70;;;;;;;;;;105070;1256;60393;-46
2023/02/28 13:26:39;;;;;;;2.10;1.20;;;;;;;;;;108621;1256;60431;-47
2023/02/28 13:29:10;;;;;;;2.20;1.20;;;;;;;;;;107546;1256;58943;-48
2023/02/28 13:32:05;;;;;;;2.40;1.30;;;;;;;;;;105604;1254;62293;-48
2023/02/28 13:34:34;;;;;;;2.30;1.40;;;;;;;;;;105828;1254;60516;-48
2023/02/28 13:37:18;;;;;;;1.70;1.20;;;;;;;;;;105022;1251;60434;-46
2023/02/28 13:39:49;;;;;;;1.90;1.50;;;;;;;;;;105310;1256;60598;-47
2023/02/28 13:42:26;;;;;;;2.30;1.60;;;;;;;;;;106410;1251;59837;-47
2023/02/28 13:44:53;;;;;;;;;;;;;;;;;;105286;1252;61366;-48
2023/02/28 13:47:24;;;;;;;2.30;1.50;;;;;;;;;;105538;1256;60345;-46
2023/02/28 13:49:52;;;;;;;3.80;2.40;;;;;;;;;;107196;1256;60961;-49
2023/02/28 13:52:21;;;;;;;2.30;1.60;;;;;;;;;;105000;1256;60258;-48
2023/02/28 13:55:10;;;;;;;4.40;2.70;;;;;;;;;;105146;1252;60323;-47
2023/02/28 13:57:41;;;;;;;3.20;1.70;;;;;;;;;;104914;1254;62719;-46
2023/02/28 14:00:31;;;;;;;2.50;2.30;;;;;;;;;;105098;1254;60425;-46
2023/02/28 14:03:03;;;;;;;4.50;2.20;;;;;;;;;;104706;1259;152949;-47
2023/02/28 14:07:28;;;;;;;3.50;2.10;;;;;;;;;;101784;1296;600588;-45
2023/02/28 14:10:08;;;;;;;3.30;1.50;;;;;;;;;;104032;1272;59387;-47
2023/02/28 14:12:55;;;;;;;4.00;1.60;;;;;;;;;;104855;1267;59056;-47
2023/02/28 14:15:36;;;;;;;2.60;1.40;;;;;;;;;;103873;1267;59138;-47
2023/02/28 14:18:14;;;;;;;4.20;1.80;;;;;;;;;;103563;1271;59383;-46
2023/02/28 14:20:42;;;;;;;2.70;1.70;;;;;;;;;;103948;1267;163743;-46
2023/02/28 14:23:13;;;;;;;4.60;1.60;;;;;;;;;;105133;1264;59023;-46
2023/02/28 14:26:06;;;;;;;3.10;1.90;;;;;;;;;;104275;1265;58830;-47
2023/02/28 14:28:46;;;;;;;2.60;1.40;;;;;;;;;;108293;1264;60556;-49
2023/02/28 14:31:15;;;;;;;2.70;1.40;;;;;;;;;;103742;1265;58823;-48
2023/02/28 14:33:56;;;;;;;2.20;1.20;;;;;;;;;;108316;1266;59738;-48
2023/02/28 14:36:27;;;;;;;2.90;1.50;;;;;;;;;;107777;1265;59756;-47
2023/02/28 14:38:56;;;;;;;3.80;1.60;;;;;;;;;;104549;1270;60377;-47
2023/02/28 14:41:29;;;;;;;3.30;1.50;;;;;;;;;;103949;1265;60328;-46
2023/02/28 14:43:58;;;;;;;7.70;2.30;;;;;;;;;;104169;1267;59658;-47
2023/02/28 14:46:36;;;;;;;5.80;2.60;;;;;;;;;;104150;1270;60625;-46
2023/02/28 14:49:04;;;;;;;5.80;1.60;;;;;;;;;;103872;1269;59604;-46
2023/02/28 14:51:34;;;;;;;3.90;1.90;;;;;;;;;;103799;1267;60181;-47
2023/02/28 14:54:02;;;;;;;2.90;1.70;;;;;;;;;;108054;1264;61285;-49
2023/02/28 14:56:34;;;;;;;2.80;1.30;;;;;;;;;;105908;1265;60517;-47
2023/02/28 14:59:03;;;;;;;2.60;1.40;;;;;;;;;;104080;1269;60757;-45
2023/02/28 15:01:33;;;;;;;2.70;1.50;;;;;;;;;;104053;1267;59724;-46